Newman, Western Australia

6:19 PM AWST on September 30, 2014 (GMT +0800)
Newman | Change Station
CLOSE
Current Station
Airport
Location: Newman Airport,
Elevation: 1722 ft
Nearby Weather Stations

Elev 1722 ft 23.42 °S, 119.80 °E | Updated 19 minutes ago

Clear
Clear
91 °F
Feels Like 91 °F
N
6
Wind Variable Wind from NE

Today
High -- | Low -- °F
--% Chance of Precip.
Yesterday
High -- | Low -- °F
Precip. -- in
5:42 AM 5:59 PM
Waxing Crescent, 35% visible
Pressure 29.98 in
Visibility -9999.0 miles
Clouds
Dew Point 28 °F
Humidity 10%
Rainfall 0.00 in
Snow Depth Not available.
UV Not available.
Pollen Not available.
Air Quality Not available.
Flu Activity Not available.
METAR YNWN 301000Z AUTO 05005KT //// // NCD 33/M02 Q1015

More Conditions Fewer Conditions

Pressure 29.98 in
Visibility -9999.0 miles
Clouds
Dew Point 28 °F
Humidity 10%
Rainfall 0.00 in
Snow Depth Not available.
UV Not available.
Pollen Not available.
Air Quality Not available.
Flu Activity Not available.
METAR YNWN 301000Z AUTO 05005KT //// // NCD 33/M02 Q1015

More Conditions Fewer Conditions

10-Day Weather Forecast

Almanac

Astronomy

Sep. 30, 2014 Rise Set
Actual Time 5:42 AM AWST 5:59 PM AWST
Civil Twilight 5:20 AM AWST 6:22 PM AWST
Nautical Twilight 4:53 AM AWST 6:48 PM AWST
Astronomical Twilight 4:27 AM AWST 7:14 PM AWST
Moon 9:50 AM AWST 11:25 PM AWST
Length of Visible Light 13h 01m
Length of Day
12h 16m
Tomorrow will be 1m 21s longer.
Waxing Crescent, 35% of the Moon is Illuminated
Today
Waxing Crescent
Oct 1
First Quarter
Oct 8
Full
Oct 15
Last Quarter
Oct 23
New

Yesterday's Extremes

Country Highs Country Lows

Community

WunderPhotos

Upload Photos

1,757,608 photos uploaded!

WunderBlogs® & News

Nearby

Snow Depth

Not available.

Earthquake Activity

City Distance Mag. Time & Date
No recent earthquake activity has been reported nearby.
Minimum magnitude displayed is 2.5.

Coastal Water Temperatures

Place Temperature
No Stations Reporting

Nearby Weather Stations